createdAt,value
2023-05-10T00:00:05.678Z,161946.56
2023-05-10T00:03:09.948Z,161917.78
2023-05-10T00:06:13.916Z,161898.13
2023-05-10T00:09:18.036Z,161890.25
2023-05-10T00:12:22.062Z,161864.09
2023-05-10T00:15:25.727Z,161856.22
2023-05-10T00:18:29.798Z,161888.94
2023-05-10T00:21:34.677Z,161874.50
2023-05-10T00:24:38.516Z,161871.91
2023-05-10T00:27:42.458Z,161849.66
2023-05-10T00:30:46.519Z,161849.66
2023-05-10T00:33:50.528Z,161827.44
2023-05-10T00:36:54.615Z,161854.88
2023-05-10T00:39:58.881Z,161839.19
2023-05-10T00:43:02.998Z,161813.00
2023-05-10T00:46:07.571Z,161815.63
2023-05-10T00:49:11.882Z,161792.06
2023-05-10T00:52:16.205Z,161790.72
2023-05-10T00:55:21.362Z,161772.41
2023-05-10T00:58:29.021Z,161780.28
2023-05-10T01:01:33.162Z,161772.41
2023-05-10T01:04:38.565Z,161782.84
2023-05-10T01:07:43.075Z,161751.47
2023-05-10T01:10:47.421Z,161755.41
2023-05-10T01:13:58.193Z,161754.06
2023-05-10T01:17:02.433Z,161751.47
2023-05-10T01:20:11.797Z,161767.16
2023-05-10T01:23:37.916Z,161764.56
2023-05-10T01:27:00.848Z,161758.00
2023-05-10T01:30:36.362Z,161758.00
2023-05-10T01:33:55.542Z,161758.00
2023-05-10T01:37:07.015Z,161764.56
2023-05-10T01:40:39.004Z,161781.56
2023-05-10T01:44:04.714Z,161776.34
2023-05-10T01:47:12.385Z,161785.50
2023-05-10T01:50:20.831Z,161784.16
2023-05-10T01:53:25.695Z,161789.44
2023-05-10T01:56:32.865Z,161823.47
2023-05-10T01:59:41.681Z,161813.00
2023-05-10T02:02:48.188Z,161794.69
2023-05-10T02:05:54.125Z,161778.97
2023-05-10T02:08:58.507Z,161777.69
2023-05-10T02:12:04.895Z,161769.81
2023-05-10T02:15:11.417Z,161747.53
2023-05-10T02:18:17.692Z,161760.66
2023-05-10T02:21:23.070Z,161781.56
2023-05-10T02:24:28.268Z,161765.81
2023-05-10T02:27:32.699Z,161778.97
2023-05-10T02:30:37.477Z,161802.53
2023-05-10T02:33:42.243Z,161799.88
2023-05-10T02:36:46.590Z,161801.19
2023-05-10T02:39:51.931Z,161781.56
2023-05-10T02:42:57.934Z,161794.69
2023-05-10T02:46:05.720Z,161773.75
2023-05-10T02:49:10.626Z,161792.06
2023-05-10T02:52:22.383Z,161807.75
2023-05-10T02:55:33.322Z,161790.72
2023-05-10T02:58:37.486Z,161809.06
2023-05-10T03:01:42.165Z,161786.78
2023-05-10T03:04:46.696Z,161793.38
2023-05-10T03:07:52.461Z,161794.69
2023-05-10T03:11:17.102Z,161776.34
2023-05-10T03:14:37.881Z,161768.47
2023-05-10T03:17:56.458Z,161782.84
2023-05-10T03:21:06.160Z,161768.47
2023-05-10T03:24:12.950Z,161781.56
2023-05-10T03:27:17.886Z,161765.81
2023-05-10T03:30:22.617Z,161743.63
2023-05-10T03:33:26.935Z,161759.34
2023-05-10T03:36:31.472Z,161743.63
2023-05-10T03:39:36.039Z,161742.31
2023-05-10T03:42:39.945Z,161764.56
2023-05-10T03:45:43.995Z,161761.94
2023-05-10T03:48:48.398Z,161775.03
2023-05-10T03:51:52.660Z,161758.00
2023-05-10T03:54:57.052Z,161760.66
2023-05-10T03:58:01.028Z,161768.47
2023-05-10T04:01:05.038Z,161752.78
2023-05-10T04:04:09.206Z,161768.47
2023-05-10T04:07:13.728Z,161793.38
2023-05-10T04:10:18.712Z,161801.19
2023-05-10T04:13:23.593Z,161819.56
2023-05-10T04:16:27.990Z,161811.69
2023-05-10T04:19:32.686Z,161789.44
2023-05-10T04:22:37.089Z,161799.88
2023-05-10T04:25:41.604Z,161820.81
2023-05-10T04:28:46.071Z,161826.09
2023-05-10T04:31:50.178Z,161847.06
2023-05-10T04:34:54.495Z,161860.13
2023-05-10T04:37:58.864Z,161873.22
2023-05-10T04:41:10.502Z,161886.31
2023-05-10T04:44:14.544Z,161902.06
2023-05-10T04:47:18.455Z,161899.41
2023-05-10T04:50:22.482Z,161915.16
2023-05-10T04:53:26.740Z,161940.00
2023-05-10T04:56:30.961Z,161967.53
2023-05-10T04:59:37.577Z,161970.13
2023-05-10T05:02:48.165Z,162015.97
2023-05-10T05:05:52.599Z,162056.56
2023-05-10T05:08:56.931Z,162112.91
2023-05-10T05:12:01.092Z,162153.53
2023-05-10T05:15:07.312Z,162188.94
2023-05-10T05:18:13.144Z,162243.91
2023-05-10T05:21:18.528Z,162291.09
2023-05-10T05:24:22.741Z,162335.63
2023-05-10T05:27:28.879Z,162388.09
2023-05-10T05:30:33.249Z,162436.59
2023-05-10T05:33:37.934Z,162491.63
2023-05-10T05:36:41.826Z,162499.47
2023-05-10T05:39:46.502Z,162542.69
2023-05-10T05:42:50.805Z,162557.13
2023-05-10T05:45:55.050Z,162538.78
2023-05-10T05:48:59.110Z,162523.06
2023-05-10T05:52:04.373Z,162521.75
2023-05-10T05:55:08.558Z,162533.56
2023-05-10T05:58:12.926Z,162549.31
2023-05-10T06:01:16.852Z,162587.31
2023-05-10T06:04:21.015Z,162549.31
2023-05-10T06:07:25.067Z,162547.97
2023-05-10T06:10:29.460Z,162545.34
2023-05-10T06:13:34.260Z,162541.41
2023-05-10T06:16:38.851Z,162592.53
2023-05-10T06:19:42.892Z,162557.13
2023-05-10T06:22:46.825Z,162529.63
2023-05-10T06:25:51.031Z,162549.31
2023-05-10T06:28:55.301Z,162557.13
2023-05-10T06:31:59.888Z,162601.69
2023-05-10T06:35:04.542Z,162651.53
2023-05-10T06:38:11.928Z,162717.06
2023-05-10T06:41:16.083Z,162795.78
2023-05-10T06:44:20.246Z,162824.66
2023-05-10T06:47:24.729Z,162968.94
2023-05-10T06:50:29.019Z,163088.28
2023-05-10T06:53:33.037Z,163125.06
2023-05-10T06:56:37.337Z,163012.22
2023-05-10T06:59:41.654Z,163075.16
2023-05-10T07:02:46.750Z,163089.59
2023-05-10T07:05:51.008Z,163097.50
2023-05-10T07:08:54.847Z,163055.50
2023-05-10T07:11:59.153Z,163114.53
2023-05-10T07:15:04.040Z,163152.59
2023-05-10T07:18:08.476Z,163176.19
2023-05-10T07:21:13.351Z,163247.09
2023-05-10T07:24:17.764Z,163308.75
2023-05-10T07:27:21.883Z,163379.63
2023-05-10T07:30:25.946Z,163451.84
2023-05-10T07:33:30.213Z,163579.19
2023-05-10T07:36:34.121Z,163703.91
2023-05-10T07:39:38.434Z,163852.38
2023-05-10T07:42:42.322Z,163935.09
2023-05-10T07:45:46.967Z,164061.25
2023-05-10T07:48:51.202Z,164124.31
2023-05-10T07:51:54.989Z,164011.28
2023-05-10T07:54:59.052Z,163832.66
2023-05-10T07:58:03.459Z,163707.88
2023-05-10T08:01:07.730Z,163587.03
2023-05-10T08:04:12.615Z,163546.38
2023-05-10T08:07:16.725Z,163596.28
2023-05-10T08:10:20.965Z,163555.56
2023-05-10T08:13:25.164Z,163554.22
2023-05-10T08:16:29.893Z,163514.91
2023-05-10T08:19:34.589Z,163526.72
2023-05-10T08:22:38.738Z,163528.03
2023-05-10T08:25:42.930Z,163533.22
2023-05-10T08:28:47.036Z,163463.66
2023-05-10T08:31:51.624Z,163467.63
2023-05-10T08:34:56.955Z,163416.38
2023-05-10T08:38:01.514Z,163369.16
2023-05-10T08:41:06.346Z,163363.88
2023-05-10T08:44:11.319Z,163302.19
2023-05-10T08:47:19.636Z,163287.78
2023-05-10T08:50:24.675Z,163184.09
2023-05-10T08:53:32.015Z,163201.19
2023-05-10T08:56:37.339Z,163252.31
2023-05-10T08:59:41.518Z,163251.03
2023-05-10T09:02:47.016Z,163156.56
2023-05-10T09:05:51.671Z,163079.09
2023-05-10T09:08:56.064Z,163088.28
2023-05-10T09:12:00.792Z,163039.75
2023-05-10T09:15:06.713Z,162974.19
2023-05-10T09:18:10.604Z,162953.22
2023-05-10T09:21:14.919Z,162917.75
2023-05-10T09:24:19.350Z,162923.00
2023-05-10T09:27:29.394Z,162886.31
2023-05-10T09:30:33.329Z,162808.91
2023-05-10T09:33:48.578Z,162731.53
2023-05-10T09:37:05.129Z,162723.69
2023-05-10T09:40:12.993Z,162683.06
2023-05-10T09:43:16.839Z,162630.53
2023-05-10T09:46:21.226Z,162656.78
2023-05-10T09:49:25.342Z,162646.31
2023-05-10T09:52:30.046Z,162633.22
2023-05-10T09:55:37.267Z,162614.81
2023-05-10T09:58:41.432Z,162596.47
2023-05-10T10:01:52.168Z,162621.41
2023-05-10T10:04:56.369Z,162589.91
2023-05-10T10:08:01.448Z,162606.97
2023-05-10T10:11:05.663Z,162621.41
2023-05-10T10:14:10.077Z,162655.44
2023-05-10T10:17:14.630Z,162667.28
2023-05-10T10:20:20.348Z,162688.22
2023-05-10T10:23:24.510Z,162734.16
2023-05-10T10:26:28.858Z,162698.72
2023-05-10T10:29:53.386Z,162725.03
2023-05-10T10:33:29.640Z,162717.06
2023-05-10T10:36:40.784Z,162705.28
2023-05-10T10:39:45.178Z,162717.06
2023-05-10T10:42:50.968Z,162745.97
2023-05-10T10:46:15.059Z,162740.69
2023-05-10T10:49:19.522Z,162725.03
2023-05-10T10:52:34.088Z,162745.97
2023-05-10T10:55:48.926Z,162717.06
2023-05-10T10:58:54.479Z,162725.03
2023-05-10T11:02:01.224Z,162743.31
2023-05-10T11:05:30.209Z,162732.88
2023-05-10T11:08:41.989Z,162739.41
2023-05-10T11:11:52.209Z,162736.81
2023-05-10T11:14:58.803Z,162711.91
2023-05-10T11:18:24.038Z,162690.88
2023-05-10T11:21:28.427Z,162688.22
2023-05-10T11:24:32.636Z,162686.94
2023-05-10T11:27:38.808Z,162690.88
2023-05-10T11:30:45.067Z,162702.69
2023-05-10T11:33:52.734Z,162701.34
2023-05-10T11:36:57.792Z,162683.06
2023-05-10T11:40:01.837Z,162723.69
2023-05-10T11:43:06.765Z,162751.19
2023-05-10T11:46:12.380Z,162757.75
2023-05-10T11:49:16.332Z,162753.88
2023-05-10T11:52:21.354Z,162797.06
2023-05-10T11:55:25.786Z,162785.28
2023-05-10T11:58:29.743Z,162811.53
2023-05-10T12:01:34.491Z,162822.03
2023-05-10T12:04:39.078Z,162753.88
2023-05-10T12:07:43.478Z,162774.81
2023-05-10T12:10:47.515Z,162822.03
2023-05-10T12:13:51.878Z,162803.69
2023-05-10T12:16:58.398Z,162801.03
2023-05-10T12:20:19.483Z,162812.81
2023-05-10T12:23:23.806Z,162845.66
2023-05-10T12:26:29.076Z,162866.63
2023-05-10T12:29:33.122Z,162849.59
2023-05-10T12:32:42.307Z,162858.72
2023-05-10T12:35:53.358Z,162852.16
2023-05-10T12:39:03.831Z,162862.69
2023-05-10T12:42:08.199Z,162867.91
2023-05-10T12:45:12.962Z,162899.44
2023-05-10T12:48:16.989Z,162929.56
2023-05-10T12:51:22.971Z,162934.81
2023-05-10T12:54:27.340Z,162951.88
2023-05-10T12:57:31.745Z,162928.28
2023-05-10T13:00:36.268Z,163010.91
2023-05-10T13:03:40.523Z,162991.25
2023-05-10T13:06:44.898Z,163004.34
2023-05-10T13:09:48.933Z,163026.63
2023-05-10T13:12:53.305Z,163066.03
2023-05-10T13:15:57.617Z,163047.66
2023-05-10T13:19:01.746Z,163066.03
2023-05-10T13:22:05.756Z,163089.59
2023-05-10T13:25:09.980Z,163013.50
2023-05-10T13:28:13.951Z,163094.91
2023-05-10T13:31:18.250Z,163085.72
2023-05-10T13:34:22.385Z,163153.88
2023-05-10T13:37:26.527Z,163111.97
2023-05-10T13:40:30.879Z,163157.84
2023-05-10T13:43:35.289Z,163094.91
2023-05-10T13:46:40.352Z,163100.06
2023-05-10T13:49:44.365Z,163107.97
2023-05-10T13:52:48.245Z,163114.53
2023-05-10T13:55:52.372Z,163126.34
2023-05-10T13:58:58.112Z,163135.56
2023-05-10T14:02:05.116Z,163121.09
2023-05-10T14:05:09.810Z,163077.81
2023-05-10T14:08:14.172Z,163034.53
2023-05-10T14:11:18.484Z,163021.41
2023-05-10T14:14:22.568Z,163014.84
2023-05-10T14:17:26.769Z,162992.53
2023-05-10T14:20:30.963Z,162971.50
2023-05-10T14:23:35.261Z,162966.34
2023-05-10T14:26:39.223Z,162954.50
2023-05-10T14:29:43.443Z,162928.28
2023-05-10T14:32:47.408Z,162903.38
2023-05-10T14:35:51.938Z,162905.94
2023-05-10T14:38:56.089Z,162909.91
2023-05-10T14:42:00.139Z,162913.84
2023-05-10T14:45:05.246Z,162921.69
2023-05-10T14:48:12.212Z,162908.56
2023-05-10T14:51:16.194Z,162879.69
2023-05-10T14:54:20.467Z,162858.72
2023-05-10T14:57:24.512Z,162835.16
2023-05-10T15:00:30.064Z,162840.38
2023-05-10T15:03:34.518Z,162808.91
2023-05-10T15:06:39.296Z,162760.38
2023-05-10T15:09:43.488Z,162731.53
2023-05-10T15:12:47.755Z,162740.69
2023-05-10T15:15:52.057Z,162727.59
2023-05-10T15:18:56.414Z,162704.00
2023-05-10T15:22:00.879Z,162679.13
2023-05-10T15:25:05.774Z,162635.81
2023-05-10T15:28:10.093Z,162621.41
2023-05-10T15:31:14.472Z,162601.69
2023-05-10T15:34:18.858Z,162601.69
2023-05-10T15:37:24.218Z,162608.31
2023-05-10T15:40:28.469Z,162626.66
2023-05-10T15:43:32.664Z,162625.38
2023-05-10T15:46:38.742Z,162637.16
2023-05-10T15:49:42.889Z,162650.25
2023-05-10T15:52:46.788Z,162639.75
2023-05-10T15:55:51.561Z,162646.31
2023-05-10T15:58:55.907Z,162643.66
2023-05-10T16:02:00.513Z,162635.81
2023-05-10T16:05:04.976Z,162659.38
2023-05-10T16:08:08.851Z,162669.94
2023-05-10T16:11:13.227Z,162685.63
2023-05-10T16:14:17.435Z,162669.94
2023-05-10T16:17:21.732Z,162676.44
2023-05-10T16:20:25.902Z,162696.16
2023-05-10T16:23:29.832Z,162725.03
2023-05-10T16:26:40.534Z,162735.47
2023-05-10T16:29:44.680Z,162726.25
2023-05-10T16:32:49.840Z,162745.97
2023-05-10T16:35:53.735Z,162752.53
2023-05-10T16:38:57.668Z,162757.75
2023-05-10T16:42:01.698Z,162765.66
2023-05-10T16:45:10.020Z,162752.53
2023-05-10T16:48:14.070Z,162744.66
2023-05-10T16:51:18.465Z,162752.53
2023-05-10T16:54:23.032Z,162751.19
2023-05-10T16:57:27.936Z,162753.88
2023-05-10T17:00:31.853Z,162743.31
2023-05-10T17:03:36.739Z,162731.53
2023-05-10T17:06:41.448Z,162734.16
2023-05-10T17:09:47.121Z,162718.41
2023-05-10T17:12:51.352Z,162711.91
2023-05-10T17:15:55.628Z,162701.34
2023-05-10T17:19:01.209Z,162700.06
2023-05-10T17:22:05.103Z,162690.88
2023-05-10T17:25:09.441Z,162692.16
2023-05-10T17:28:13.793Z,162686.94
2023-05-10T17:31:18.545Z,162686.94
2023-05-10T17:34:22.753Z,162680.41
2023-05-10T17:37:26.896Z,162681.72
2023-05-10T17:40:31.228Z,162675.16
2023-05-10T17:43:35.637Z,162672.50
2023-05-10T17:46:39.895Z,162669.94
2023-05-10T17:49:43.938Z,162659.38
2023-05-10T17:52:48.262Z,162651.53
2023-05-10T17:55:53.700Z,162660.72
2023-05-10T17:58:58.201Z,162638.44
2023-05-10T18:02:02.747Z,162629.25
2023-05-10T18:05:07.185Z,162625.38
2023-05-10T18:08:11.298Z,162620.09
2023-05-10T18:11:15.344Z,162616.16
2023-05-10T18:14:28.497Z,162609.59
2023-05-10T18:17:40.572Z,162604.38
2023-05-10T18:20:46.174Z,162608.31
2023-05-10T18:23:50.389Z,162599.09
2023-05-10T18:26:54.962Z,162587.31
2023-05-10T18:29:59.202Z,162578.13
2023-05-10T18:33:03.455Z,162575.53
2023-05-10T18:36:08.511Z,162567.63
2023-05-10T18:39:13.300Z,162566.34
2023-05-10T18:42:18.243Z,162554.56
2023-05-10T18:45:22.724Z,162555.81
2023-05-10T18:48:27.432Z,162544.03
2023-05-10T18:51:31.646Z,162533.56
2023-05-10T18:54:36.080Z,162528.31
2023-05-10T18:57:43.044Z,162529.63
2023-05-10T19:00:46.975Z,162517.81
2023-05-10T19:03:51.204Z,162519.13
2023-05-10T19:06:55.978Z,162512.56
2023-05-10T19:10:00.338Z,162504.75
2023-05-10T19:13:04.500Z,162496.81
2023-05-10T19:16:16.557Z,162498.13
2023-05-10T19:19:21.268Z,162491.63
2023-05-10T19:22:44.957Z,162490.31
2023-05-10T19:25:51.644Z,162486.38
2023-05-10T19:28:57.477Z,162483.75
2023-05-10T19:32:01.879Z,162482.41
2023-05-10T19:35:06.607Z,162482.41
2023-05-10T19:38:11.311Z,162477.19
2023-05-10T19:41:15.415Z,162470.63
2023-05-10T19:44:19.566Z,162467.97
2023-05-10T19:47:23.598Z,162461.47
2023-05-10T19:50:27.919Z,162449.69
2023-05-10T19:53:32.567Z,162449.69
2023-05-10T19:56:36.429Z,162494.25
2023-05-10T19:59:40.552Z,162506.03
2023-05-10T20:02:44.746Z,162485.03
2023-05-10T20:05:48.965Z,162482.41
2023-05-10T20:08:53.170Z,162465.41
2023-05-10T20:11:56.935Z,162447.03
2023-05-10T20:15:01.033Z,162441.81
2023-05-10T20:18:05.260Z,162436.59
2023-05-10T20:21:09.821Z,162447.03
2023-05-10T20:24:14.080Z,162439.16
2023-05-10T20:27:18.420Z,162443.09
2023-05-10T20:30:22.545Z,162444.41
2023-05-10T20:33:27.063Z,162452.25
2023-05-10T20:36:31.506Z,162449.69
2023-05-10T20:39:35.857Z,162451.03
2023-05-10T20:42:39.957Z,162460.13
2023-05-10T20:45:44.384Z,162452.25
2023-05-10T20:48:48.669Z,162449.69
2023-05-10T20:51:53.160Z,162445.75
2023-05-10T20:54:57.143Z,162441.81
2023-05-10T20:58:02.198Z,162451.03
2023-05-10T21:01:08.405Z,162449.69
2023-05-10T21:04:12.534Z,162452.25
2023-05-10T21:07:16.895Z,162448.38
2023-05-10T21:10:21.553Z,162454.91
2023-05-10T21:13:25.666Z,162453.59
2023-05-10T21:16:29.645Z,162454.91
2023-05-10T21:19:34.048Z,162451.03
2023-05-10T21:22:38.330Z,162453.59
2023-05-10T21:25:42.567Z,162449.69
2023-05-10T21:28:46.588Z,162451.03
2023-05-10T21:31:50.525Z,162453.59
2023-05-10T21:34:54.630Z,162451.03
2023-05-10T21:37:58.822Z,162464.09
2023-05-10T21:41:06.962Z,162453.59
2023-05-10T21:44:11.395Z,162439.16
2023-05-10T21:47:15.106Z,162435.25
2023-05-10T21:50:19.507Z,162441.81
2023-05-10T21:53:23.861Z,162440.47
2023-05-10T21:56:28.210Z,162427.38
2023-05-10T21:59:32.604Z,162422.09
2023-05-10T22:02:36.768Z,162423.44
2023-05-10T22:05:40.855Z,162407.72
2023-05-10T22:08:45.297Z,162427.38
2023-05-10T22:11:49.721Z,162419.53
2023-05-10T22:15:06.391Z,162410.31
2023-05-10T22:18:13.190Z,162407.72
2023-05-10T22:21:17.777Z,162409.03
2023-05-10T22:24:21.767Z,162414.25
2023-05-10T22:27:26.131Z,162416.91
2023-05-10T22:30:32.208Z,162424.75
2023-05-10T22:33:37.465Z,162424.75
2023-05-10T22:36:41.665Z,162406.44
2023-05-10T22:39:46.577Z,162407.72
2023-05-10T22:42:50.735Z,162414.25
2023-05-10T22:45:54.951Z,162411.66
2023-05-10T22:48:59.939Z,162426.03
2023-05-10T22:52:04.017Z,162406.44
2023-05-10T22:55:09.400Z,162389.38
2023-05-10T22:58:13.649Z,162390.72
2023-05-10T23:01:17.810Z,162393.25
2023-05-10T23:04:22.007Z,162381.50
2023-05-10T23:07:26.526Z,162386.75
2023-05-10T23:10:30.572Z,162388.09
2023-05-10T23:13:34.698Z,162394.59
2023-05-10T23:16:39.198Z,162381.50
2023-05-10T23:19:43.439Z,162375.00
2023-05-10T23:22:47.717Z,162392.03
2023-05-10T23:25:52.147Z,162393.25
2023-05-10T23:28:56.611Z,162392.03
2023-05-10T23:32:00.876Z,162392.03
2023-05-10T23:35:05.419Z,162388.09
2023-05-10T23:38:09.521Z,162377.56
2023-05-10T23:41:13.797Z,162373.66
2023-05-10T23:44:17.637Z,162380.22
2023-05-10T23:47:21.896Z,162381.50
2023-05-10T23:50:26.080Z,162382.81
2023-05-10T23:53:29.991Z,162395.94
2023-05-10T23:56:33.976Z,162386.75
2023-05-10T23:59:38.291Z,162381.50
